createdAt,value
2022-11-21T00:00:45.176Z,42.97
2022-11-21T00:01:47.691Z,42.72
2022-11-21T00:02:52.060Z,45.53
2022-11-21T00:04:01.967Z,40.85
2022-11-21T00:05:05.105Z,39.70
2022-11-21T00:06:07.948Z,44.55
2022-11-21T00:07:17.314Z,40.60
2022-11-21T00:08:23.107Z,46.05
2022-11-21T00:09:30.466Z,44.72
2022-11-21T00:10:36.480Z,42.10
2022-11-21T00:11:39.499Z,44.10
2022-11-21T00:12:44.066Z,43.63
2022-11-21T00:13:46.733Z,48.70
2022-11-21T00:14:51.222Z,49.40
2022-11-21T00:15:57.127Z,48.67
2022-11-21T00:17:07.069Z,43.40
2022-11-21T00:18:15.328Z,49.05
2022-11-21T00:19:20.729Z,46.22
2022-11-21T00:20:28.120Z,45.60
2022-11-21T00:21:32.548Z,44.13
2022-11-21T00:22:38.911Z,42.65
2022-11-21T00:23:47.680Z,47.13
2022-11-21T00:25:03.453Z,45.80
2022-11-21T00:26:08.224Z,45.90
2022-11-21T00:27:23.966Z,41.58
2022-11-21T00:28:30.809Z,48.63
2022-11-21T00:29:55.961Z,46.72
2022-11-21T00:31:03.339Z,46.55
2022-11-21T00:32:07.602Z,46.30
2022-11-21T00:33:10.855Z,44.60
2022-11-21T00:34:16.259Z,45.08
2022-11-21T00:35:20.411Z,46.85
2022-11-21T00:36:23.145Z,55.08
2022-11-21T00:37:28.316Z,43.42
2022-11-21T00:38:30.803Z,49.80
2022-11-21T00:39:34.006Z,51.42
2022-11-21T00:40:39.347Z,44.00
2022-11-21T00:41:44.909Z,48.20
2022-11-21T00:42:50.301Z,46.83
2022-11-21T00:43:53.399Z,49.00
2022-11-21T00:44:57.674Z,45.33
2022-11-21T00:46:03.229Z,47.20
2022-11-21T00:47:07.176Z,51.30
2022-11-21T00:48:11.479Z,46.90
2022-11-21T00:49:16.118Z,50.08
2022-11-21T00:50:19.874Z,51.17
2022-11-21T00:51:24.809Z,50.63
2022-11-21T00:52:34.142Z,54.03
2022-11-21T00:53:38.463Z,50.88
2022-11-21T00:54:44.857Z,50.92
2022-11-21T00:55:51.016Z,48.47
2022-11-21T00:56:54.120Z,50.33
2022-11-21T00:58:02.670Z,51.58
2022-11-21T00:59:14.516Z,52.08
2022-11-21T01:00:19.046Z,54.03
2022-11-21T01:01:25.983Z,51.47
2022-11-21T01:02:29.133Z,45.88
2022-11-21T01:03:41.825Z,49.80
2022-11-21T01:04:45.495Z,50.88
2022-11-21T01:05:54.352Z,53.97
2022-11-21T01:07:05.123Z,45.05
2022-11-21T01:08:11.336Z,48.35
2022-11-21T01:09:14.936Z,48.00
2022-11-21T01:10:19.898Z,52.00
2022-11-21T01:11:22.908Z,52.05
2022-11-21T01:12:28.430Z,51.17
2022-11-21T01:13:37.280Z,52.33
2022-11-21T01:14:43.429Z,50.95
2022-11-21T01:16:06.685Z,54.60
2022-11-21T01:17:18.903Z,53.47
2022-11-21T01:18:25.912Z,57.78
2022-11-21T01:19:32.471Z,50.55
2022-11-21T01:21:45.852Z,48.03
2022-11-21T01:22:49.355Z,56.45
2022-11-21T01:23:58.438Z,57.50
2022-11-21T01:25:06.816Z,55.30
2022-11-21T01:26:14.853Z,60.45
2022-11-21T01:27:18.734Z,65.85
2022-11-21T01:28:24.290Z,62.67
2022-11-21T01:29:28.996Z,62.97
2022-11-21T01:30:32.239Z,65.03
2022-11-21T01:31:37.129Z,71.07
2022-11-21T01:32:40.411Z,69.93
2022-11-21T01:33:48.717Z,62.35
2022-11-21T01:34:59.678Z,64.28
2022-11-21T01:36:25.815Z,61.92
2022-11-21T01:37:31.242Z,63.63
2022-11-21T01:38:42.920Z,60.67
2022-11-21T01:39:48.422Z,68.60
2022-11-21T01:40:56.357Z,69.55
2022-11-21T01:42:06.960Z,62.83
2022-11-21T01:43:17.323Z,64.50
2022-11-21T01:44:26.569Z,60.15
2022-11-21T01:46:08.001Z,60.22
2022-11-21T01:47:14.238Z,56.13
2022-11-21T01:48:19.917Z,61.67
2022-11-21T01:49:47.925Z,59.63
2022-11-21T01:51:03.396Z,57.17
2022-11-21T01:52:19.209Z,56.05
2022-11-21T01:53:33.290Z,50.83
2022-11-21T01:54:58.981Z,56.20
2022-11-21T01:56:07.520Z,47.97
2022-11-21T01:57:17.582Z,51.95
2022-11-21T01:58:23.579Z,54.13
2022-11-21T01:59:57.307Z,52.00
2022-11-21T02:01:10.193Z,57.58
2022-11-21T02:02:21.450Z,48.63
2022-11-21T02:03:30.522Z,44.67
2022-11-21T02:05:42.249Z,47.30
2022-11-21T02:06:55.246Z,45.03
2022-11-21T02:08:12.845Z,45.55
2022-11-21T02:09:21.636Z,44.72
2022-11-21T02:10:27.709Z,46.25
2022-11-21T02:11:43.905Z,49.05
2022-11-21T02:12:54.897Z,47.95
2022-11-21T02:14:04.677Z,44.20
2022-11-21T02:15:11.672Z,47.53
2022-11-21T02:16:30.927Z,47.40
2022-11-21T02:17:42.818Z,44.63
2022-11-21T02:18:52.269Z,44.65
2022-11-21T02:20:04.257Z,48.47
2022-11-21T02:21:45.659Z,48.08
2022-11-21T02:23:45.668Z,47.53
2022-11-21T02:25:04.341Z,48.72
2022-11-21T02:26:18.531Z,51.85
2022-11-21T02:27:33.294Z,50.90
2022-11-21T02:28:39.318Z,53.28
2022-11-21T02:29:51.216Z,50.55
2022-11-21T02:30:56.226Z,53.70
2022-11-21T02:32:07.501Z,48.85
2022-11-21T02:33:14.725Z,52.45
2022-11-21T02:34:18.326Z,49.60
2022-11-21T02:35:22.228Z,45.92
2022-11-21T02:36:49.169Z,43.33
2022-11-21T02:38:02.075Z,48.65
2022-11-21T02:39:14.220Z,47.42
2022-11-21T02:40:29.968Z,43.63
2022-11-21T02:42:00.943Z,43.50
2022-11-21T02:43:23.523Z,43.47
2022-11-21T02:44:44.410Z,45.38
2022-11-21T02:45:56.683Z,41.75
2022-11-21T02:47:10.317Z,37.70
2022-11-21T02:48:17.036Z,39.90
2022-11-21T02:50:02.117Z,35.10
2022-11-21T02:51:07.037Z,37.67
2022-11-21T02:52:10.838Z,33.33
2022-11-21T02:53:16.869Z,38.00
2022-11-21T02:54:21.082Z,37.50
2022-11-21T02:55:27.802Z,36.08
2022-11-21T02:56:32.923Z,35.42
2022-11-21T02:57:42.900Z,44.25
2022-11-21T02:58:53.994Z,39.42
2022-11-21T03:00:09.847Z,44.28
2022-11-21T03:01:15.613Z,40.78
2022-11-21T03:02:18.506Z,43.13
2022-11-21T03:03:23.413Z,45.13
2022-11-21T03:04:27.733Z,40.03
2022-11-21T03:05:31.849Z,43.92
2022-11-21T03:06:43.997Z,45.85
2022-11-21T03:07:47.983Z,45.13
2022-11-21T03:08:51.759Z,45.05
2022-11-21T03:10:01.576Z,42.42
2022-11-21T03:11:05.844Z,44.47
2022-11-21T03:12:09.335Z,42.97
2022-11-21T03:13:12.667Z,41.83
2022-11-21T03:14:20.448Z,41.88
2022-11-21T03:15:27.142Z,43.83
2022-11-21T03:16:33.693Z,44.20
2022-11-21T03:17:37.520Z,42.92
2022-11-21T03:18:42.428Z,38.53
2022-11-21T03:19:49.031Z,38.25
2022-11-21T03:20:53.676Z,37.97
2022-11-21T03:21:57.502Z,38.92
2022-11-21T03:23:02.323Z,43.47
2022-11-21T03:24:06.026Z,38.72
2022-11-21T03:25:14.277Z,38.95
2022-11-21T03:26:17.861Z,36.70
2022-11-21T03:27:26.943Z,37.58
2022-11-21T03:28:28.933Z,35.20
2022-11-21T03:29:31.570Z,36.72
2022-11-21T03:30:35.474Z,35.17
2022-11-21T03:31:42.899Z,32.33
2022-11-21T03:32:47.020Z,32.78
2022-11-21T03:33:51.102Z,34.75
2022-11-21T03:34:54.632Z,33.92
2022-11-21T03:35:56.909Z,33.03
2022-11-21T03:36:59.466Z,34.63
2022-11-21T03:38:01.913Z,36.33
2022-11-21T03:39:06.738Z,35.63
2022-11-21T03:40:11.591Z,32.80
2022-11-21T03:41:30.039Z,29.23
2022-11-21T03:42:32.138Z,35.53
2022-11-21T03:43:35.666Z,36.53
2022-11-21T03:44:37.792Z,32.90
2022-11-21T03:45:41.287Z,34.22
2022-11-21T03:46:47.177Z,37.33
2022-11-21T03:47:50.512Z,38.97
2022-11-21T03:48:54.378Z,34.45
2022-11-21T03:49:58.352Z,35.15
2022-11-21T03:51:01.945Z,34.80
2022-11-21T03:52:06.375Z,35.00
2022-11-21T03:53:08.671Z,33.85
2022-11-21T03:54:13.278Z,34.17
2022-11-21T03:55:18.152Z,36.47
2022-11-21T03:56:23.353Z,35.88
2022-11-21T03:57:28.427Z,33.95
2022-11-21T03:58:35.902Z,32.85
2022-11-21T03:59:52.002Z,39.65
2022-11-21T04:00:58.729Z,37.30
2022-11-21T04:02:08.167Z,33.85
2022-11-21T04:03:10.535Z,34.13
2022-11-21T04:04:15.108Z,35.22
2022-11-21T04:05:20.731Z,37.42
2022-11-21T04:06:26.026Z,33.70
2022-11-21T04:07:30.444Z,37.72
2022-11-21T04:08:32.828Z,36.58
2022-11-21T04:09:36.128Z,36.72
2022-11-21T04:10:38.681Z,30.58
2022-11-21T04:11:40.962Z,35.53
2022-11-21T04:12:43.719Z,35.80
2022-11-21T04:13:51.316Z,34.00
2022-11-21T04:14:53.396Z,36.00
2022-11-21T04:15:58.205Z,32.33
2022-11-21T04:17:04.654Z,32.30
2022-11-21T04:18:06.717Z,37.78
2022-11-21T04:19:08.868Z,32.38
2022-11-21T04:20:13.840Z,31.77
2022-11-21T04:21:17.294Z,36.25
2022-11-21T04:22:20.151Z,35.08
2022-11-21T04:23:24.042Z,37.78
2022-11-21T04:24:27.947Z,38.13
2022-11-21T04:25:31.606Z,38.08
2022-11-21T04:26:33.915Z,33.83
2022-11-21T04:27:40.256Z,35.83
2022-11-21T04:28:48.946Z,36.47
2022-11-21T04:29:51.332Z,35.70
2022-11-21T04:30:56.184Z,34.63
2022-11-21T04:32:00.598Z,34.15
2022-11-21T04:33:03.436Z,39.80
2022-11-21T04:34:10.155Z,38.72
2022-11-21T04:35:16.848Z,37.25
2022-11-21T04:36:22.583Z,37.00
2022-11-21T04:37:25.440Z,37.80
2022-11-21T04:38:31.430Z,39.25
2022-11-21T04:39:42.063Z,39.08
2022-11-21T04:40:59.182Z,34.85
2022-11-21T04:42:02.912Z,36.53
2022-11-21T04:43:08.580Z,34.75
2022-11-21T04:44:16.409Z,34.22
2022-11-21T04:45:19.741Z,33.42
2022-11-21T04:46:32.884Z,37.38
2022-11-21T04:47:45.120Z,36.55
2022-11-21T04:48:49.216Z,36.78
2022-11-21T04:49:55.584Z,33.95
2022-11-21T04:50:59.049Z,38.33
2022-11-21T04:52:04.598Z,36.67
2022-11-21T04:53:19.154Z,34.97
2022-11-21T04:54:22.868Z,36.97
2022-11-21T04:55:29.380Z,37.05
2022-11-21T04:56:32.781Z,39.20
2022-11-21T04:57:38.040Z,37.53
2022-11-21T04:58:47.153Z,32.72
2022-11-21T04:59:50.084Z,40.10
2022-11-21T05:00:55.284Z,34.83
2022-11-21T05:02:01.722Z,38.65
2022-11-21T05:03:07.024Z,36.25
2022-11-21T05:04:11.569Z,38.78
2022-11-21T05:05:15.567Z,39.20
2022-11-21T05:06:18.729Z,37.50
2022-11-21T05:07:26.639Z,39.75
2022-11-21T05:08:29.902Z,37.53
2022-11-21T05:09:32.340Z,36.67
2022-11-21T05:10:55.636Z,42.72
2022-11-21T05:12:21.713Z,39.10
2022-11-21T05:13:24.118Z,40.50
2022-11-21T05:14:28.319Z,39.30
2022-11-21T05:15:30.766Z,39.45
2022-11-21T05:16:34.170Z,40.85
2022-11-21T05:17:36.596Z,38.25
2022-11-21T05:18:38.723Z,40.05
2022-11-21T05:19:40.933Z,39.08
2022-11-21T05:20:46.922Z,38.28
2022-11-21T05:21:48.889Z,38.08
2022-11-21T05:22:53.940Z,43.78
2022-11-21T05:23:58.048Z,40.38
2022-11-21T05:25:00.463Z,38.97
2022-11-21T05:26:02.797Z,41.05
2022-11-21T05:27:06.592Z,41.97
2022-11-21T05:28:13.589Z,44.35
2022-11-21T05:29:16.589Z,42.60
2022-11-21T05:30:18.671Z,44.85
2022-11-21T05:31:28.582Z,43.25
2022-11-21T05:32:30.985Z,41.00
2022-11-21T05:33:33.467Z,44.58
2022-11-21T05:34:38.216Z,41.55
2022-11-21T05:35:43.496Z,41.50
2022-11-21T05:36:45.894Z,42.10
2022-11-21T05:37:48.365Z,39.70
2022-11-21T05:38:56.649Z,38.35
2022-11-21T05:39:59.135Z,38.60
2022-11-21T05:41:01.489Z,46.63
2022-11-21T05:42:04.185Z,40.13
2022-11-21T05:43:27.810Z,41.42
2022-11-21T05:44:33.373Z,44.15
2022-11-21T05:45:37.000Z,42.80
2022-11-21T05:46:41.007Z,48.33
2022-11-21T05:47:44.655Z,43.13
2022-11-21T05:48:48.828Z,46.58
2022-11-21T05:50:01.222Z,45.72
2022-11-21T05:51:05.612Z,38.00
2022-11-21T05:52:10.997Z,41.10
2022-11-21T05:53:14.330Z,46.92
2022-11-21T05:54:19.197Z,44.33
2022-11-21T05:55:24.222Z,44.90
2022-11-21T05:56:35.451Z,45.30
2022-11-21T05:57:39.241Z,45.17
2022-11-21T05:58:43.506Z,49.13
2022-11-21T05:59:48.503Z,43.65
2022-11-21T06:01:06.756Z,44.33
2022-11-21T06:02:37.070Z,47.75
2022-11-21T06:03:50.951Z,40.25
2022-11-21T06:05:00.125Z,42.83
2022-11-21T06:06:24.962Z,44.60
2022-11-21T06:07:34.887Z,40.75
2022-11-21T06:08:49.445Z,45.53
2022-11-21T06:10:18.478Z,45.70
2022-11-21T06:11:23.268Z,39.22
2022-11-21T06:12:32.086Z,41.53
2022-11-21T06:13:35.318Z,40.45
2022-11-21T06:14:37.761Z,40.85
2022-11-21T06:15:42.387Z,48.22
2022-11-21T06:16:50.712Z,43.20
2022-11-21T06:17:53.124Z,39.63
2022-11-21T06:18:59.082Z,43.65
2022-11-21T06:20:02.468Z,49.15
2022-11-21T06:21:21.849Z,44.03
2022-11-21T06:22:25.565Z,41.72
2022-11-21T06:23:28.698Z,46.55
2022-11-21T06:24:31.867Z,43.78
2022-11-21T06:25:36.614Z,46.15
2022-11-21T06:26:41.372Z,44.65
2022-11-21T06:27:47.694Z,47.90
2022-11-21T06:28:50.982Z,39.97
2022-11-21T06:29:56.808Z,46.72
2022-11-21T06:31:23.845Z,42.80
2022-11-21T06:32:25.870Z,42.10
2022-11-21T06:33:28.016Z,41.92
2022-11-21T06:34:30.294Z,46.33
2022-11-21T06:35:33.374Z,41.20
2022-11-21T06:36:36.812Z,43.75
2022-11-21T06:37:39.769Z,40.90
2022-11-21T06:38:42.860Z,44.75
2022-11-21T06:39:45.508Z,44.40
2022-11-21T06:40:49.638Z,44.38
2022-11-21T06:41:54.325Z,42.33
2022-11-21T06:42:58.033Z,41.65
2022-11-21T06:44:01.822Z,40.97
2022-11-21T06:45:05.322Z,40.88
2022-11-21T06:46:09.077Z,44.67
2022-11-21T06:47:12.179Z,43.85
2022-11-21T06:48:15.899Z,45.85
2022-11-21T06:49:18.564Z,43.97
2022-11-21T06:50:20.669Z,50.63
2022-11-21T06:51:24.352Z,45.78
2022-11-21T06:52:26.595Z,43.65
2022-11-21T06:53:29.567Z,43.80
2022-11-21T06:54:31.909Z,41.85
2022-11-21T06:55:34.113Z,44.45
2022-11-21T06:56:36.110Z,45.20
2022-11-21T06:57:38.221Z,41.50
2022-11-21T06:58:40.554Z,43.15
2022-11-21T06:59:43.085Z,46.45
2022-11-21T07:00:45.175Z,45.67
2022-11-21T07:01:48.423Z,44.17
2022-11-21T07:02:52.005Z,45.42
2022-11-21T07:03:54.682Z,45.42
2022-11-21T07:04:59.466Z,43.63
2022-11-21T07:06:04.190Z,44.50
2022-11-21T07:07:07.478Z,43.17
2022-11-21T07:08:13.286Z,44.60
2022-11-21T07:09:33.730Z,44.15
2022-11-21T07:10:36.320Z,46.80
2022-11-21T07:11:39.949Z,45.92
2022-11-21T07:13:00.884Z,45.55
2022-11-21T07:14:09.118Z,45.45
2022-11-21T07:15:11.938Z,46.70
2022-11-21T07:16:14.446Z,44.60
2022-11-21T07:17:16.460Z,43.55
2022-11-21T07:18:19.861Z,45.92
2022-11-21T07:19:23.386Z,45.03
2022-11-21T07:20:25.373Z,43.50
2022-11-21T07:21:27.381Z,42.63
2022-11-21T07:22:35.736Z,42.25
2022-11-21T07:23:39.844Z,42.70
2022-11-21T07:24:42.487Z,43.08
2022-11-21T07:25:45.897Z,43.65
2022-11-21T07:26:47.933Z,46.22
2022-11-21T07:27:50.303Z,45.83
2022-11-21T07:28:52.563Z,46.53
2022-11-21T07:29:57.482Z,42.72
2022-11-21T07:31:10.067Z,44.10
2022-11-21T07:32:20.005Z,47.67
2022-11-21T07:33:53.142Z,41.72
2022-11-21T07:34:57.597Z,46.03
2022-11-21T07:36:05.223Z,43.30
2022-11-21T07:37:08.280Z,47.67
2022-11-21T07:38:10.456Z,45.15
2022-11-21T07:39:12.481Z,43.22
2022-11-21T07:40:14.642Z,46.05
2022-11-21T07:41:16.657Z,47.55
2022-11-21T07:42:18.635Z,44.97
2022-11-21T07:43:20.729Z,46.80
2022-11-21T07:44:24.240Z,45.45
2022-11-21T07:45:26.210Z,43.25
2022-11-21T07:46:28.622Z,42.60
2022-11-21T07:47:32.784Z,47.78
2022-11-21T07:48:41.385Z,46.50
2022-11-21T07:49:43.584Z,40.53
2022-11-21T07:50:48.290Z,48.17
2022-11-21T07:51:52.269Z,45.72
2022-11-21T07:53:06.270Z,43.90
2022-11-21T07:54:10.356Z,43.45
2022-11-21T07:55:12.343Z,39.38
2022-11-21T07:56:14.554Z,39.92
2022-11-21T07:57:24.750Z,41.38
2022-11-21T07:58:27.088Z,43.15
2022-11-21T08:00:22.205Z,42.08
2022-11-21T08:01:24.496Z,44.65
2022-11-21T08:02:28.279Z,42.92
2022-11-21T08:03:30.292Z,46.10
2022-11-21T08:04:32.365Z,48.53
2022-11-21T08:05:42.583Z,39.92
2022-11-21T08:06:44.620Z,40.83
2022-11-21T08:07:46.734Z,38.22
2022-11-21T08:08:53.616Z,43.55
2022-11-21T08:09:56.857Z,40.40
2022-11-21T08:10:59.324Z,43.92
2022-11-21T08:12:01.935Z,39.58
2022-11-21T08:13:04.002Z,43.42
2022-11-21T08:14:06.064Z,41.72
2022-11-21T08:15:09.223Z,41.05
2022-11-21T08:16:11.514Z,40.45
2022-11-21T08:17:14.346Z,44.33
2022-11-21T08:18:21.051Z,44.35
2022-11-21T08:19:22.998Z,44.90
2022-11-21T08:20:25.000Z,40.33
2022-11-21T08:21:27.552Z,45.63
2022-11-21T08:22:31.221Z,38.72
2022-11-21T08:23:34.283Z,46.50
2022-11-21T08:24:36.417Z,49.60
2022-11-21T08:25:41.206Z,42.50
2022-11-21T08:26:47.448Z,41.08
2022-11-21T08:27:52.198Z,39.90
2022-11-21T08:28:59.607Z,39.67
2022-11-21T08:30:02.051Z,39.05
2022-11-21T08:31:06.612Z,44.22
2022-11-21T08:32:08.511Z,45.10
2022-11-21T08:33:11.449Z,40.88
2022-11-21T08:34:14.706Z,41.75
2022-11-21T08:35:19.606Z,53.97
2022-11-21T08:36:23.588Z,48.10
2022-11-21T08:37:27.965Z,39.88
2022-11-21T08:38:30.332Z,48.40
2022-11-21T08:39:37.421Z,49.42
2022-11-21T08:40:40.537Z,48.42
2022-11-21T08:42:01.209Z,46.83
2022-11-21T08:43:08.377Z,46.92
2022-11-21T08:44:14.019Z,47.20
2022-11-21T08:45:17.263Z,48.65
2022-11-21T08:46:19.293Z,47.17
2022-11-21T08:47:22.880Z,47.67
2022-11-21T08:48:28.709Z,47.53
2022-11-21T08:49:35.062Z,43.88
2022-11-21T08:50:37.202Z,42.65
2022-11-21T08:51:41.374Z,45.30
2022-11-21T08:52:43.365Z,42.95
2022-11-21T08:53:48.495Z,40.00
2022-11-21T08:54:52.638Z,43.72
2022-11-21T08:55:54.985Z,40.50
2022-11-21T08:56:56.954Z,43.58
2022-11-21T08:57:59.232Z,41.47
2022-11-21T08:59:01.328Z,46.97
2022-11-21T09:00:04.747Z,41.35
2022-11-21T09:01:07.007Z,37.08
2022-11-21T09:02:11.860Z,37.67
2022-11-21T09:03:19.039Z,42.90
2022-11-21T09:04:23.880Z,42.25
2022-11-21T09:05:25.838Z,40.35
2022-11-21T09:06:30.655Z,41.72
2022-11-21T09:07:32.734Z,41.55
2022-11-21T09:08:35.337Z,40.15
2022-11-21T09:09:39.296Z,39.35
2022-11-21T09:10:42.614Z,39.83
2022-11-21T09:11:45.921Z,39.20
2022-11-21T09:12:47.997Z,43.05
2022-11-21T09:14:12.571Z,40.45
2022-11-21T09:15:33.210Z,47.08
2022-11-21T09:16:57.963Z,39.78
2022-11-21T09:18:03.545Z,41.40
2022-11-21T09:19:07.038Z,40.65
2022-11-21T09:20:09.862Z,41.40
2022-11-21T09:21:16.653Z,39.55
2022-11-21T09:22:18.974Z,41.22
2022-11-21T09:23:20.987Z,44.50
2022-11-21T09:24:23.092Z,41.55
2022-11-21T09:25:25.206Z,42.70
2022-11-21T09:26:27.118Z,40.28
2022-11-21T09:27:30.634Z,40.38
2022-11-21T09:28:32.590Z,36.97
2022-11-21T09:29:34.693Z,41.80
2022-11-21T09:30:37.075Z,38.35
2022-11-21T09:31:38.976Z,41.40
2022-11-21T09:32:41.630Z,40.42
2022-11-21T09:33:43.669Z,41.83
2022-11-21T09:34:45.599Z,40.55
2022-11-21T09:35:48.037Z,37.08
2022-11-21T09:36:50.224Z,42.35
2022-11-21T09:37:53.802Z,45.47
2022-11-21T09:38:56.540Z,41.15
2022-11-21T09:39:58.930Z,37.63
2022-11-21T09:41:41.389Z,40.78
2022-11-21T09:43:07.033Z,39.78
2022-11-21T09:44:16.059Z,40.72
2022-11-21T09:45:29.413Z,36.75
2022-11-21T09:51:34.653Z,36.20
2022-11-21T09:52:44.871Z,36.45
2022-11-21T09:54:21.929Z,40.33
2022-11-21T09:59:47.085Z,38.08
2022-11-21T10:01:13.570Z,39.83
2022-11-21T10:03:48.236Z,37.28
2022-11-21T10:05:00.881Z,35.28
2022-11-21T10:06:34.695Z,38.45
2022-11-21T10:07:47.318Z,35.25
2022-11-21T10:09:03.024Z,39.53
2022-11-21T10:10:46.757Z,35.08
2022-11-21T10:12:29.050Z,33.58
2022-11-21T10:14:18.555Z,35.22
2022-11-21T10:15:40.442Z,32.42
2022-11-21T10:16:50.221Z,34.72
2022-11-21T10:18:37.342Z,34.25
2022-11-21T10:20:07.739Z,33.30
2022-11-21T10:21:32.857Z,33.00
2022-11-21T10:23:16.032Z,34.40
2022-11-21T10:24:57.851Z,32.03
2022-11-21T10:26:24.271Z,33.70
2022-11-21T10:27:38.824Z,34.50
2022-11-21T10:29:12.029Z,30.33
2022-11-21T10:30:22.111Z,37.40
2022-11-21T10:31:30.898Z,28.45
2022-11-21T10:32:50.963Z,29.83
2022-11-21T10:33:59.177Z,28.80
2022-11-21T10:35:21.280Z,24.17
2022-11-21T10:36:38.891Z,23.08
2022-11-21T10:37:48.749Z,26.08
2022-11-21T10:38:56.871Z,27.20
2022-11-21T10:40:21.127Z,25.70
2022-11-21T10:41:56.453Z,26.40
2022-11-21T10:43:39.317Z,23.80
2022-11-21T10:45:10.187Z,33.63
2022-11-21T10:46:13.584Z,32.08
2022-11-21T10:47:28.383Z,33.67
2022-11-21T10:48:31.965Z,33.67
2022-11-21T10:49:48.772Z,38.10
2022-11-21T11:02:27.459Z,29.27
2022-11-21T11:03:39.838Z,29.83
2022-11-21T11:04:51.975Z,30.60
2022-11-21T12:00:59.023Z,28.50
2022-11-21T12:02:26.653Z,27.35
2022-11-21T12:04:01.170Z,26.83
2022-11-21T12:05:26.288Z,26.52
2022-11-21T12:07:18.040Z,29.35
2022-11-21T12:08:41.715Z,28.92
2022-11-21T12:36:21.572Z,25.08
2022-11-21T12:37:55.726Z,28.52
2022-11-21T12:39:28.446Z,28.52
2022-11-21T12:40:59.242Z,27.58
2022-11-21T12:42:29.041Z,28.77
2022-11-21T12:44:10.293Z,32.78
2022-11-21T12:45:37.912Z,26.48
2022-11-21T12:47:58.868Z,28.67
2022-11-21T12:49:55.419Z,27.73
2022-11-21T12:51:41.734Z,28.52
2022-11-21T12:53:09.953Z,30.95
2022-11-21T12:54:49.433Z,29.02
2022-11-21T12:56:00.634Z,30.67
2022-11-21T12:57:39.523Z,30.38
2022-11-21T12:59:06.258Z,30.00
2022-11-21T13:00:27.880Z,30.48
2022-11-21T13:01:55.796Z,30.80
2022-11-21T13:06:47.043Z,31.75
2022-11-21T13:07:53.116Z,33.20
2022-11-21T13:09:09.285Z,33.25
2022-11-21T13:10:22.697Z,27.95
2022-11-21T13:12:00.270Z,34.67
2022-11-21T13:13:21.404Z,32.72
2022-11-21T13:14:37.409Z,28.02
2022-11-21T13:16:01.081Z,30.73
2022-11-21T13:17:33.873Z,28.08
2022-11-21T13:18:57.727Z,28.63
2022-11-21T13:20:07.550Z,28.95
2022-11-21T13:48:31.468Z,27.77
2022-11-21T13:49:52.722Z,30.52
2022-11-21T13:51:36.935Z,31.48
2022-11-21T13:53:08.336Z,35.17
2022-11-21T13:55:03.259Z,33.63
2022-11-21T13:57:59.904Z,31.20
2022-11-21T13:59:42.327Z,29.88
2022-11-21T14:07:47.934Z,32.15
2022-11-21T14:09:15.564Z,30.95
2022-11-21T14:10:36.453Z,29.83
2022-11-21T14:11:50.328Z,36.70
2022-11-21T14:12:55.770Z,34.08
2022-11-21T14:13:59.705Z,36.90
2022-11-21T14:15:02.711Z,30.95
2022-11-21T14:16:15.731Z,35.50
2022-11-21T14:17:49.965Z,31.20
2022-11-21T14:19:03.514Z,38.42
2022-11-21T14:20:30.980Z,37.45
2022-11-21T14:21:40.969Z,33.03
2022-11-21T14:24:26.626Z,35.15
2022-11-21T14:25:50.431Z,34.30
2022-11-21T14:26:59.821Z,36.65
2022-11-21T14:28:20.707Z,33.78
2022-11-21T14:29:41.693Z,35.38
2022-11-21T14:30:48.831Z,26.58
2022-11-21T14:32:10.624Z,33.08
2022-11-21T14:33:36.495Z,29.35
2022-11-21T14:41:37.880Z,27.90
2022-11-21T14:42:49.174Z,33.55
2022-11-21T14:44:09.069Z,32.63
2022-11-21T14:45:23.523Z,40.78
2022-11-21T14:46:30.899Z,39.08
2022-11-21T14:47:47.075Z,35.22
2022-11-21T14:48:50.690Z,37.83
2022-11-21T14:50:01.053Z,36.33
2022-11-21T14:51:08.097Z,36.05
2022-11-21T14:52:38.348Z,35.97
2022-11-21T14:53:47.637Z,40.60
2022-11-21T14:56:35.315Z,35.00
2022-11-21T14:57:55.421Z,37.47
2022-11-21T14:59:07.095Z,35.15
2022-11-21T15:00:43.320Z,31.67
2022-11-21T15:02:04.974Z,33.08
2022-11-21T15:03:24.298Z,34.88
2022-11-21T15:04:32.520Z,28.98
2022-11-21T15:07:31.584Z,37.45
2022-11-21T15:12:00.322Z,29.52
2022-11-21T15:13:13.578Z,38.28
2022-11-21T15:14:28.530Z,32.40
2022-11-21T15:15:36.526Z,34.60
2022-11-21T15:16:39.947Z,33.33
2022-11-21T15:18:10.144Z,32.17
2022-11-21T15:19:10.929Z,30.77
2022-11-21T15:20:16.465Z,30.33
2022-11-21T15:22:38.167Z,37.25
2022-11-21T15:25:37.265Z,31.48
2022-11-21T15:26:45.320Z,36.75
2022-11-21T15:28:14.922Z,35.65
2022-11-21T15:29:32.000Z,39.22
2022-11-21T15:30:56.090Z,44.72
2022-11-21T15:32:14.053Z,48.60
2022-11-21T15:33:23.889Z,37.60
2022-11-21T15:34:36.109Z,38.60
2022-11-21T15:35:44.301Z,41.75
2022-11-21T15:37:03.777Z,35.40
2022-11-21T15:40:00.287Z,37.40
2022-11-21T15:41:11.377Z,44.63
2022-11-21T15:43:19.716Z,42.97
2022-11-21T15:45:23.139Z,41.38
2022-11-21T16:33:53.221Z,32.90
2022-11-21T16:34:58.633Z,32.20
2022-11-21T16:36:02.756Z,38.00
2022-11-21T16:37:20.070Z,37.17
2022-11-21T16:38:37.039Z,36.25
2022-11-21T16:39:59.536Z,33.70
2022-11-21T16:41:22.378Z,39.58
2022-11-21T16:42:37.016Z,44.72
2022-11-21T16:58:53.967Z,36.03
2022-11-21T16:59:59.304Z,51.40
2022-11-21T17:01:17.007Z,50.25
2022-11-21T17:02:26.517Z,53.38
2022-11-21T17:03:42.219Z,49.22
2022-11-21T17:04:53.375Z,43.40
2022-11-21T17:06:15.341Z,39.35
2022-11-21T17:08:48.355Z,40.30
2022-11-21T17:09:58.074Z,39.13
2022-11-21T17:11:15.651Z,41.63
2022-11-21T17:12:23.642Z,40.08
2022-11-21T17:13:31.506Z,39.00
2022-11-21T17:14:42.501Z,38.47
2022-11-21T17:15:50.441Z,43.80
2022-11-21T17:16:59.722Z,34.30
2022-11-21T17:18:08.760Z,38.70
2022-11-21T17:19:28.049Z,38.88
2022-11-21T17:20:36.389Z,38.75
2022-11-21T17:21:45.364Z,38.97
2022-11-21T17:22:50.103Z,40.95
2022-11-21T17:23:56.457Z,48.90
2022-11-21T17:25:10.899Z,40.60
2022-11-21T17:26:22.006Z,42.15
2022-11-21T17:27:55.464Z,39.33
2022-11-21T17:29:06.100Z,43.20
2022-11-21T17:30:16.523Z,41.88
2022-11-21T17:31:26.751Z,40.42
2022-11-21T17:32:43.776Z,39.20
2022-11-21T17:42:54.453Z,42.53
2022-11-21T17:44:03.641Z,38.78
2022-11-21T17:45:17.150Z,50.15
2022-11-21T17:46:25.837Z,37.92
2022-11-21T17:47:35.577Z,43.50
2022-11-21T17:49:37.498Z,41.90
2022-11-21T17:50:41.022Z,47.65
2022-11-21T17:51:56.811Z,41.58
2022-11-21T17:53:01.979Z,43.15
2022-11-21T17:54:15.264Z,41.53
2022-11-21T17:55:20.013Z,49.47
2022-11-21T17:56:27.513Z,43.70
2022-11-21T17:57:30.686Z,45.75
2022-11-21T17:58:40.557Z,43.30
2022-11-21T17:59:45.474Z,45.70
2022-11-21T18:00:53.926Z,41.00
2022-11-21T18:02:03.074Z,45.60
2022-11-21T18:03:16.948Z,44.53
2022-11-21T18:04:47.134Z,53.63
2022-11-21T18:06:08.992Z,49.05
2022-11-21T18:07:14.182Z,48.45
2022-11-21T18:08:18.415Z,45.72
2022-11-21T18:09:25.009Z,44.30
2022-11-21T18:10:43.299Z,49.22
2022-11-21T18:12:02.547Z,46.25
2022-11-21T18:13:27.828Z,44.75
2022-11-21T18:14:35.193Z,59.25
2022-11-21T18:16:00.307Z,48.35
2022-11-21T18:17:03.020Z,46.55
2022-11-21T18:18:06.516Z,51.45
2022-11-21T18:19:15.721Z,41.55
2022-11-21T18:20:21.612Z,54.20
2022-11-21T18:21:34.017Z,79.00
2022-11-21T18:22:46.028Z,62.50
2022-11-21T18:24:03.028Z,51.67
2022-11-21T18:25:09.461Z,46.70
2022-11-21T18:29:47.971Z,50.05
2022-11-21T18:30:53.735Z,47.25
2022-11-21T18:31:58.189Z,43.75
2022-11-21T18:33:03.822Z,40.67
2022-11-21T18:34:07.278Z,43.00
2022-11-21T18:35:11.181Z,45.67
2022-11-21T18:36:16.164Z,48.30
2022-11-21T18:37:22.758Z,44.38
2022-11-21T18:38:47.275Z,41.60
2022-11-21T18:39:55.989Z,44.17
2022-11-21T18:41:09.514Z,48.10
2022-11-21T18:42:12.284Z,42.58
2022-11-21T18:43:21.315Z,41.10
2022-11-21T18:45:34.321Z,40.53
2022-11-21T18:46:41.339Z,43.70
2022-11-21T18:47:49.752Z,44.00
2022-11-21T18:49:05.443Z,44.70
2022-11-21T18:50:18.857Z,45.05
2022-11-21T18:51:26.074Z,48.55
2022-11-21T18:52:31.949Z,48.90
2022-11-21T18:53:39.702Z,47.25
2022-11-21T18:54:47.130Z,42.20
2022-11-21T18:55:53.666Z,44.00
2022-11-21T18:57:00.820Z,46.13
2022-11-21T19:12:37.900Z,45.05
2022-11-21T19:13:45.464Z,44.78
2022-11-21T19:14:50.464Z,48.15
2022-11-21T19:15:57.014Z,44.13
2022-11-21T19:17:04.995Z,46.17
2022-11-21T19:18:11.158Z,46.28
2022-11-21T19:20:41.386Z,45.53
2022-11-21T19:21:44.494Z,45.75